KTCS/TCS METAR and TAF weather

Enter ICAO airport designator
Station Type Date Time Source
KTCS METAR 2019/04/22 23:53 UTC NOAA

KTCS 222353Z AUTO 30005KT 10SM BKN100 BKN120 19/00 A2999 RMK AO2 PK WND 27027/2258 SLP097 60000 T01890000 10244 20172 53010


Station Type Date Time Source
KTCS Decoded METAR 2019/04/22 23:53 UTC NOAA

TRUTH OR CONSEQUENCES MUNI, NM, United States (KTCS) 33-14N 107-16W 1469M
Apr 22, 2019 - 07:53 PM EDT / 2019.04.22 2353 UTC
Wind: from the WNW (300 degrees) at 6 MPH (5 KT):0
Visibility: 10 mile(s):0
Sky conditions: mostly cloudy
Temperature: 66.0 F (18.9 C)
Dew Point: 32.0 F (0.0 C)
Relative Humidity: 27%
Pressure (altimeter): 29.99 in. Hg (1015 hPa)
Pressure tendency: 0.03 inches (1.0 hPa) higher than three hours ago
ob: KTCS 222353Z AUTO 30005KT 10SM BKN100 BKN120 19/00 A2999 RMK AO2 PK WND 27027/2258 SLP097 60000 T01890000 10244 20172 53010
cycle: 0

Station Type Date Time Source
KTCS TAF 2019/04/22 18:36 UTC NOAA

TAF KTCS 221734Z 2218/2318 16006KT P6SM FEW120 BKN250
FM222000 20012G20KT P6SM BKN150
FM230100 02009KT P6SM VCTS SCT070CB BKN150
FM230500 01006KT P6SM FEW080 BKN200
FM231200 VRB04KT P6SM FEW070 SCT250

Example: see airport list